Accueil
METAR-TAF:

METAR-TAF

Aéroports :

Bettles, Alaska, États-Unis

latitude: 66-55N, longitude: 151-31W, altitude: 196 m

Observation

Le bulletin a été fait il y a 1 heure et 4 minutes, à 22:53 UTC
Vent calme
Température -22°C
Humidité 70%
Pression 1015 hPa
Visibilité: 16.1 km
Ciel clair

METAR: PABT 262253Z 00000KT 10SM CLR M22/M26 A2996 RMK AO2 SLP174 T12171261

Heure: 14:57 (23:57 UTC)

Prévision

Le bulletin a été fait il y a 37 minutes, à 23:20 UTC
Prévision valable du 27 à 00 UTC au 27 à 24 UTC
Vent 3 kt de direction variable
Visibilité: 10 km
Quelques nuages à une hauteur de 8000 ft
A partir de 27 à 1800 UTC
Vent 3 kt de direction variable
Visibilité: 10 km
Ciel clair

TAF: PABT 262320Z 2700/2724 VRB03KT P6SM FEW080 FM271800 VRB03KT P6SM SKC

Observations et prévisions météorologiques de plus de 4000 aéroports (messages METAR et TAF).

Les stations disponibles sont représentées par des disques jaunes et rouges sur la carte.

Passer la souris dessus pour voir le nom de la station.

Cliquer dessus pour voir les observations et prévisions météorologiques.

Pour changer de carte: cliquez sur les boutons verts avec une croix noire pour zoomer, sur le bouton vert avec un tiret pour effectuer un zoom arrière, ou sur les flèches vertes pour les cartes adjacentes.


METAR-TAF: